createdAt,value
2019-05-09T00:01:25.420Z,94.10
2019-05-09T00:04:13.901Z,94.10
2019-05-09T00:07:03.587Z,94.10
2019-05-09T00:09:53.387Z,94.20
2019-05-09T00:12:43.646Z,94.50
2019-05-09T00:15:30.652Z,94.80
2019-05-09T00:18:18.332Z,95.00
2019-05-09T00:21:10.760Z,95.20
2019-05-09T00:23:59.128Z,95.20
2019-05-09T00:26:47.260Z,95.20
2019-05-09T00:29:48.913Z,95.10
2019-05-09T00:32:38.413Z,95.00
2019-05-09T00:35:27.875Z,94.80
2019-05-09T00:38:16.364Z,94.70
2019-05-09T00:41:04.105Z,94.30
2019-05-09T00:43:54.328Z,93.90
2019-05-09T00:46:46.251Z,93.70
2019-05-09T00:49:34.303Z,93.90
2019-05-09T00:52:23.471Z,93.90
2019-05-09T00:55:13.233Z,93.90
2019-05-09T00:58:01.408Z,93.80
2019-05-09T01:00:49.368Z,93.80
2019-05-09T01:03:37.392Z,93.70
2019-05-09T01:06:25.472Z,93.60
2019-05-09T01:09:13.825Z,93.50
2019-05-09T01:12:03.806Z,93.50
2019-05-09T01:14:50.920Z,93.50
2019-05-09T01:17:38.727Z,93.20
2019-05-09T01:20:26.667Z,93.40
2019-05-09T01:23:14.465Z,93.30
2019-05-09T01:26:03.897Z,93.20
2019-05-09T01:28:53.767Z,93.10
2019-05-09T01:31:43.407Z,93.40
2019-05-09T01:34:33.075Z,93.80
2019-05-09T01:37:23.750Z,94.00
2019-05-09T01:40:13.236Z,94.00
2019-05-09T01:43:01.333Z,93.80
2019-05-09T01:45:49.057Z,93.80
2019-05-09T01:48:36.857Z,93.70
2019-05-09T01:51:24.974Z,93.60
2019-05-09T01:54:13.404Z,93.60
2019-05-09T01:57:03.275Z,93.20
2019-05-09T01:59:53.112Z,93.30
2019-05-09T02:02:43.214Z,93.30
2019-05-09T02:05:30.384Z,93.30
2019-05-09T02:08:18.425Z,93.20
2019-05-09T02:11:06.105Z,93.50
2019-05-09T02:13:53.711Z,93.90
2019-05-09T02:16:43.421Z,93.80
2019-05-09T02:19:33.243Z,93.80
2019-05-09T02:22:34.473Z,93.80
2019-05-09T02:25:24.205Z,93.90
2019-05-09T02:28:14.180Z,93.90
2019-05-09T02:31:05.281Z,94.30
2019-05-09T02:33:54.131Z,94.10
2019-05-09T02:36:41.624Z,94.20
2019-05-09T02:39:29.548Z,94.30
2019-05-09T02:42:19.630Z,94.20
2019-05-09T02:45:08.872Z,94.10
2019-05-09T02:47:59.062Z,93.80
2019-05-09T02:50:48.494Z,94.10
2019-05-09T02:53:39.047Z,94.20
2019-05-09T02:56:25.661Z,94.30
2019-05-09T02:59:19.086Z,94.50
2019-05-09T03:02:14.418Z,94.60
2019-05-09T03:05:02.029Z,94.70
2019-05-09T03:07:50.309Z,94.40
2019-05-09T03:10:38.330Z,94.70
2019-05-09T03:13:28.969Z,94.50
2019-05-09T03:16:19.110Z,94.40
2019-05-09T03:19:08.782Z,94.20
2019-05-09T03:22:00.474Z,94.30
2019-05-09T03:24:48.790Z,94.30
2019-05-09T03:27:44.215Z,94.40
2019-05-09T03:30:45.148Z,94.50
2019-05-09T03:33:35.684Z,94.60
2019-05-09T03:36:22.865Z,94.50
2019-05-09T03:39:10.857Z,94.40
2019-05-09T03:41:58.835Z,94.20
2019-05-09T03:44:47.713Z,94.10
2019-05-09T03:47:37.741Z,93.80
2019-05-09T03:50:27.965Z,93.70
2019-05-09T03:53:15.768Z,94.30
2019-05-09T03:56:05.153Z,94.30
2019-05-09T03:58:52.737Z,94.30
2019-05-09T04:01:40.683Z,94.60
2019-05-09T04:04:28.559Z,94.70
2019-05-09T04:07:18.506Z,94.60
2019-05-09T04:10:07.734Z,94.60
2019-05-09T04:12:58.948Z,94.70
2019-05-09T04:15:45.262Z,94.70
2019-05-09T04:18:33.410Z,94.20
2019-05-09T04:21:21.206Z,94.00
2019-05-09T04:24:08.937Z,94.00
2019-05-09T04:26:58.260Z,94.20
2019-05-09T04:29:48.327Z,94.10
2019-05-09T04:32:37.736Z,94.10
2019-05-09T04:35:27.917Z,94.20
2019-05-09T04:38:17.756Z,94.20
2019-05-09T04:41:04.858Z,94.20
2019-05-09T04:43:52.594Z,94.30
2019-05-09T04:46:40.652Z,94.30
2019-05-09T04:49:30.052Z,94.30
2019-05-09T04:52:18.208Z,94.40
2019-05-09T04:55:07.841Z,94.80
2019-05-09T04:57:57.236Z,94.90
2019-05-09T05:01:03.745Z,95.30
2019-05-09T05:03:53.529Z,96.20
2019-05-09T05:06:41.388Z,96.50
2019-05-09T05:09:29.125Z,94.80
2019-05-09T05:12:18.607Z,93.10
2019-05-09T05:15:08.750Z,91.40
2019-05-09T05:17:58.299Z,88.90
2019-05-09T05:20:48.192Z,88.70
2019-05-09T05:23:47.265Z,84.80
2019-05-09T05:26:35.017Z,84.40
2019-05-09T05:29:23.040Z,84.80
2019-05-09T05:32:12.279Z,84.50
2019-05-09T05:35:04.540Z,85.40
2019-05-09T05:37:52.805Z,86.30
2019-05-09T05:40:45.468Z,86.80
2019-05-09T05:43:40.506Z,87.10
2019-05-09T05:46:24.680Z,87.90
2019-05-09T05:49:12.392Z,87.90
2019-05-09T05:52:00.417Z,88.00
2019-05-09T05:54:48.137Z,87.60
2019-05-09T05:57:38.355Z,87.30
2019-05-09T06:00:28.374Z,88.00
2019-05-09T06:03:17.819Z,88.10
2019-05-09T06:06:08.608Z,88.40
2019-05-09T06:08:57.939Z,89.00
2019-05-09T06:11:48.235Z,89.40
2019-05-09T06:14:34.909Z,89.90
2019-05-09T06:17:22.860Z,89.30
2019-05-09T06:20:10.981Z,88.20
2019-05-09T06:22:59.021Z,88.70
2019-05-09T06:25:48.498Z,89.20
2019-05-09T06:28:37.657Z,89.60
2019-05-09T06:31:25.488Z,89.20
2019-05-09T06:34:13.747Z,87.50
2019-05-09T06:37:03.285Z,86.90
2019-05-09T06:39:51.195Z,87.40
2019-05-09T06:42:39.369Z,87.30
2019-05-09T06:45:39.131Z,85.50
2019-05-09T06:48:24.893Z,85.30
2019-05-09T06:51:12.855Z,82.80
2019-05-09T06:54:01.013Z,82.50
2019-05-09T06:56:48.918Z,79.60
2019-05-09T06:59:38.125Z,76.20
2019-05-09T07:02:28.355Z,76.80
2019-05-09T07:05:29.183Z,79.40
2019-05-09T07:08:18.606Z,79.60
2019-05-09T07:11:07.594Z,80.10
2019-05-09T07:13:57.765Z,79.30
2019-05-09T07:16:45.005Z,76.00
2019-05-09T07:19:32.812Z,73.60
2019-05-09T07:22:22.471Z,74.30
2019-05-09T07:25:11.991Z,73.00
2019-05-09T07:27:59.548Z,74.10
2019-05-09T07:31:01.165Z,76.20
2019-05-09T07:33:53.374Z,76.80
2019-05-09T07:36:41.074Z,78.10
2019-05-09T07:39:28.725Z,77.60
2019-05-09T07:42:17.997Z,80.00
2019-05-09T07:45:08.865Z,76.10
2019-05-09T07:47:58.417Z,74.60
2019-05-09T07:50:48.091Z,75.40
2019-05-09T07:53:38.091Z,74.10
2019-05-09T07:56:25.496Z,77.00
2019-05-09T07:59:13.457Z,74.90
2019-05-09T08:02:01.429Z,73.90
2019-05-09T08:04:49.595Z,74.50
2019-05-09T08:07:38.311Z,71.00
2019-05-09T08:10:30.598Z,69.80
2019-05-09T08:13:18.237Z,68.60
2019-05-09T08:16:07.937Z,68.90
2019-05-09T08:18:57.593Z,70.40
2019-05-09T08:21:47.818Z,68.70
2019-05-09T08:24:37.860Z,70.00
2019-05-09T08:27:25.235Z,70.30
2019-05-09T08:30:12.974Z,72.40
2019-05-09T08:33:00.629Z,73.50
2019-05-09T08:35:52.528Z,73.40
2019-05-09T08:38:39.134Z,74.90
2019-05-09T08:41:29.038Z,75.20
2019-05-09T08:44:18.637Z,73.30
2019-05-09T08:47:07.882Z,74.80
2019-05-09T08:49:58.672Z,76.70
2019-05-09T08:52:48.154Z,78.70
2019-05-09T08:55:38.354Z,79.30
2019-05-09T08:58:27.733Z,78.90
2019-05-09T09:01:27.587Z,80.20
2019-05-09T09:04:05.022Z,79.70
2019-05-09T09:06:53.029Z,79.10
2019-05-09T09:09:41.115Z,79.30
2019-05-09T09:12:34.172Z,79.90
2019-05-09T09:15:18.765Z,79.80
2019-05-09T09:18:08.613Z,78.50
2019-05-09T09:20:58.711Z,76.20
2019-05-09T09:23:48.137Z,76.20
2019-05-09T09:26:35.342Z,74.30
2019-05-09T09:29:22.993Z,75.10
2019-05-09T09:32:10.853Z,73.80
2019-05-09T09:34:58.872Z,70.30
2019-05-09T09:37:51.859Z,70.40
2019-05-09T09:40:38.530Z,68.30
2019-05-09T09:43:28.009Z,69.20
2019-05-09T09:46:17.954Z,69.90
2019-05-09T09:49:07.726Z,69.30
2019-05-09T09:51:54.750Z,65.60
2019-05-09T09:54:42.918Z,65.60
2019-05-09T09:57:30.897Z,62.50
2019-05-09T10:00:58.244Z,63.90
2019-05-09T10:03:47.392Z,63.00
2019-05-09T10:06:35.377Z,65.40
2019-05-09T10:09:23.465Z,63.20
2019-05-09T10:12:11.450Z,62.60
2019-05-09T10:15:00.869Z,62.10
2019-05-09T10:17:53.109Z,61.50
2019-05-09T10:20:51.594Z,61.50
2019-05-09T10:23:41.132Z,59.90
2019-05-09T10:26:29.221Z,58.30
2019-05-09T10:29:17.744Z,58.40
2019-05-09T10:32:13.104Z,56.20
2019-05-09T10:35:00.733Z,55.80
2019-05-09T10:37:48.641Z,55.20
2019-05-09T10:40:40.013Z,55.20
2019-05-09T10:43:38.032Z,52.40
2019-05-09T10:46:52.878Z,52.90
2019-05-09T10:49:29.856Z,54.70
2019-05-09T10:52:18.325Z,53.30
2019-05-09T10:55:09.108Z,53.60
2019-05-09T10:58:01.911Z,52.90
2019-05-09T11:00:48.322Z,53.50
2019-05-09T11:03:37.645Z,51.20
2019-05-09T11:06:28.451Z,53.90
2019-05-09T11:09:15.058Z,53.90
2019-05-09T11:12:03.297Z,53.80
2019-05-09T11:14:50.894Z,55.40
2019-05-09T11:17:39.047Z,58.30
2019-05-09T11:20:28.401Z,62.80
2019-05-09T11:23:16.379Z,66.00
2019-05-09T11:26:04.226Z,68.70
2019-05-09T11:28:52.026Z,71.00
2019-05-09T11:31:39.789Z,76.20
2019-05-09T11:34:27.561Z,76.90
2019-05-09T11:37:15.453Z,77.40
2019-05-09T11:40:05.429Z,78.00
2019-05-09T11:42:53.517Z,78.60
2019-05-09T11:45:41.532Z,78.70
2019-05-09T11:48:29.711Z,79.50
2019-05-09T11:51:29.617Z,80.60
2019-05-09T11:54:19.374Z,80.10
2019-05-09T11:57:07.629Z,80.40
2019-05-09T11:59:57.719Z,81.00
2019-05-09T12:02:45.316Z,81.80
2019-05-09T12:05:32.949Z,82.90
2019-05-09T12:08:20.882Z,83.00
2019-05-09T12:11:08.599Z,82.70
2019-05-09T12:13:58.121Z,81.90
2019-05-09T12:16:48.059Z,82.10
2019-05-09T12:19:37.980Z,81.90
2019-05-09T12:22:24.914Z,81.50
2019-05-09T12:25:13.105Z,80.70
2019-05-09T12:28:00.962Z,80.60
2019-05-09T12:30:49.077Z,80.40
2019-05-09T12:33:37.042Z,79.90
2019-05-09T12:36:24.841Z,80.10
2019-05-09T12:39:12.489Z,80.20
2019-05-09T12:42:00.545Z,78.00
2019-05-09T12:44:49.499Z,77.80
2019-05-09T12:47:39.792Z,77.50
2019-05-09T12:50:29.439Z,75.60
2019-05-09T12:53:18.973Z,75.40
2019-05-09T12:56:08.123Z,74.00
2019-05-09T12:58:57.832Z,75.90
2019-05-09T13:01:45.305Z,76.60
2019-05-09T13:04:33.318Z,75.80
2019-05-09T13:07:21.200Z,72.90
2019-05-09T13:10:09.490Z,71.80
2019-05-09T13:12:57.329Z,72.40
2019-05-09T13:15:48.937Z,71.80
2019-05-09T13:18:54.633Z,70.70
2019-05-09T13:21:42.250Z,71.80
2019-05-09T13:24:30.201Z,69.90
2019-05-09T13:27:18.963Z,71.40
2019-05-09T13:30:08.349Z,73.70
2019-05-09T13:32:56.195Z,73.10
2019-05-09T13:35:43.842Z,74.10
2019-05-09T13:38:31.897Z,76.50
2019-05-09T13:41:19.995Z,74.30
2019-05-09T13:44:13.317Z,74.30
2019-05-09T13:46:58.612Z,74.90
2019-05-09T13:49:48.407Z,72.60
2019-05-09T13:52:38.046Z,74.10
2019-05-09T13:55:27.521Z,73.90
2019-05-09T13:58:15.363Z,75.10
2019-05-09T14:01:03.410Z,75.80
2019-05-09T14:03:51.296Z,75.30
2019-05-09T14:06:39.341Z,76.60
2019-05-09T14:09:30.554Z,71.90
2019-05-09T14:12:18.509Z,72.50
2019-05-09T14:15:08.495Z,71.00
2019-05-09T14:17:58.109Z,66.70
2019-05-09T14:20:45.981Z,67.60
2019-05-09T14:23:36.702Z,67.60
2019-05-09T14:26:24.083Z,66.80
2019-05-09T14:29:13.021Z,67.60
2019-05-09T14:32:04.839Z,67.20
2019-05-09T14:34:51.171Z,67.30
2019-05-09T14:37:39.071Z,66.60
2019-05-09T14:40:28.117Z,66.20
2019-05-09T14:43:18.391Z,66.40
2019-05-09T14:46:08.005Z,67.90
2019-05-09T14:48:58.204Z,68.60
2019-05-09T14:51:45.187Z,69.10
2019-05-09T14:54:33.145Z,70.70
2019-05-09T14:57:21.121Z,70.00
2019-05-09T15:00:09.590Z,71.10
2019-05-09T15:02:58.155Z,71.80
2019-05-09T15:05:48.055Z,73.10
2019-05-09T15:08:38.013Z,73.80
2019-05-09T15:11:27.943Z,74.30
2019-05-09T15:14:15.138Z,73.70
2019-05-09T15:17:02.934Z,74.20
2019-05-09T15:19:59.967Z,75.30
2019-05-09T15:22:40.480Z,74.80
2019-05-09T15:25:28.560Z,73.90
2019-05-09T15:28:17.595Z,73.60
2019-05-09T15:31:05.667Z,72.00
2019-05-09T15:33:53.326Z,72.50
2019-05-09T15:36:41.149Z,70.40
2019-05-09T15:39:29.410Z,70.10
2019-05-09T15:42:18.274Z,70.90
2019-05-09T15:45:07.862Z,71.40
2019-05-09T15:47:58.179Z,72.80
2019-05-09T15:50:47.588Z,73.60
2019-05-09T15:53:35.071Z,71.90
2019-05-09T15:56:22.913Z,71.60
2019-05-09T15:59:10.898Z,72.70
2019-05-09T16:01:58.625Z,72.80
2019-05-09T16:04:47.509Z,73.50
2019-05-09T16:07:37.480Z,75.70
2019-05-09T16:10:25.013Z,77.80
2019-05-09T16:13:12.801Z,79.00
2019-05-09T16:16:00.689Z,78.50
2019-05-09T16:18:48.965Z,79.10
2019-05-09T16:21:38.290Z,79.80
2019-05-09T16:24:28.009Z,79.80
2019-05-09T16:27:15.765Z,80.60
2019-05-09T16:30:08.504Z,79.70
2019-05-09T16:32:58.622Z,77.80
2019-05-09T16:35:48.322Z,76.80
2019-05-09T16:38:45.230Z,77.60
2019-05-09T16:41:28.033Z,76.90
2019-05-09T16:44:18.225Z,77.80
2019-05-09T16:47:08.219Z,78.10
2019-05-09T16:49:57.900Z,79.00
2019-05-09T16:52:45.248Z,78.70
2019-05-09T16:55:34.668Z,78.40
2019-05-09T16:58:22.723Z,79.50
2019-05-09T17:01:10.652Z,80.40
2019-05-09T17:03:59.859Z,81.30
2019-05-09T17:06:49.694Z,82.00
2019-05-09T17:09:40.591Z,82.00
2019-05-09T17:12:28.897Z,83.00
2019-05-09T17:15:21.181Z,82.70
2019-05-09T17:18:10.082Z,82.60
2019-05-09T17:21:14.619Z,83.10
2019-05-09T17:23:49.860Z,82.30
2019-05-09T17:26:38.023Z,83.30
2019-05-09T17:29:28.059Z,83.30
2019-05-09T17:32:18.128Z,82.80
2019-05-09T17:35:07.565Z,83.20
2019-05-09T17:37:55.435Z,83.90
2019-05-09T17:40:43.248Z,84.50
2019-05-09T17:43:31.052Z,84.00
2019-05-09T17:46:19.235Z,84.00
2019-05-09T17:49:08.269Z,83.40
2019-05-09T17:51:58.226Z,84.50
2019-05-09T17:54:45.648Z,83.30
2019-05-09T17:57:33.342Z,83.60
2019-05-09T18:00:22.198Z,83.20
2019-05-09T18:03:10.343Z,84.10
2019-05-09T18:05:57.933Z,84.00
2019-05-09T18:08:48.285Z,84.30
2019-05-09T18:11:37.561Z,84.60
2019-05-09T18:14:27.466Z,84.90
2019-05-09T18:17:14.769Z,85.50
2019-05-09T18:20:02.582Z,85.60
2019-05-09T18:22:50.177Z,85.90
2019-05-09T18:25:38.071Z,85.80
2019-05-09T18:28:25.994Z,85.90
2019-05-09T18:31:13.634Z,86.20
2019-05-09T18:34:02.562Z,86.50
2019-05-09T18:36:50.598Z,86.40
2019-05-09T18:39:38.165Z,87.20
2019-05-09T18:42:27.483Z,87.80
2019-05-09T18:45:17.531Z,88.90
2019-05-09T18:48:05.530Z,89.10
2019-05-09T18:50:53.387Z,87.70
2019-05-09T18:53:40.994Z,88.30
2019-05-09T18:56:28.638Z,87.60
2019-05-09T18:59:16.585Z,87.50
2019-05-09T19:02:04.550Z,87.70
2019-05-09T19:04:52.381Z,88.00
2019-05-09T19:07:39.990Z,88.00
2019-05-09T19:10:27.756Z,86.80
2019-05-09T19:13:15.898Z,88.00
2019-05-09T19:16:11.392Z,88.70
2019-05-09T19:19:04.053Z,89.20
2019-05-09T19:22:04.458Z,89.30
2019-05-09T19:24:48.689Z,88.70
2019-05-09T19:27:36.581Z,88.70
2019-05-09T19:30:24.242Z,88.00
2019-05-09T19:33:12.179Z,87.80
2019-05-09T19:36:00.089Z,86.80
2019-05-09T19:38:48.194Z,85.50
2019-05-09T19:41:37.163Z,86.00
2019-05-09T19:44:24.809Z,86.80
2019-05-09T19:47:12.858Z,84.50
2019-05-09T19:50:00.554Z,85.00
2019-05-09T19:52:48.453Z,84.80
2019-05-09T19:55:36.429Z,85.50
2019-05-09T19:58:24.467Z,86.20
2019-05-09T20:01:12.642Z,85.80
2019-05-09T20:04:00.457Z,86.10
2019-05-09T20:06:47.995Z,85.60
2019-05-09T20:09:46.797Z,85.60
2019-05-09T20:12:42.002Z,84.70
2019-05-09T20:15:30.243Z,85.00
2019-05-09T20:21:05.439Z,85.20
2019-05-09T20:23:53.242Z,86.50
2019-05-09T20:26:41.544Z,86.80
2019-05-09T20:29:30.379Z,87.60
2019-05-09T20:32:18.313Z,87.80
2019-05-09T20:35:07.795Z,88.00
2019-05-09T20:37:56.149Z,87.50
2019-05-09T20:40:44.013Z,88.10
2019-05-09T20:43:32.020Z,86.70
2019-05-09T20:46:20.268Z,87.30
2019-05-09T20:49:08.619Z,86.60
2019-05-09T20:51:56.554Z,87.10
2019-05-09T20:54:44.653Z,86.50
2019-05-09T20:57:32.526Z,86.40
2019-05-09T21:00:20.902Z,85.70
2019-05-09T21:03:08.905Z,85.50
2019-05-09T21:05:56.605Z,85.60
2019-05-09T21:08:44.662Z,85.10
2019-05-09T21:11:32.453Z,85.10
2019-05-09T21:14:20.391Z,85.70
2019-05-09T21:17:08.701Z,85.80
2019-05-09T21:19:56.469Z,85.60
2019-05-09T21:22:44.374Z,85.70
2019-05-09T21:25:33.525Z,85.70
2019-05-09T21:28:22.086Z,85.60
2019-05-09T21:31:10.031Z,86.10
2019-05-09T21:33:58.007Z,85.90
2019-05-09T21:36:45.891Z,85.60
2019-05-09T21:39:33.883Z,85.90
2019-05-09T21:42:21.595Z,85.60
2019-05-09T21:45:11.577Z,85.10
2019-05-09T21:47:59.285Z,83.10
2019-05-09T21:50:47.240Z,83.50
2019-05-09T21:53:40.736Z,82.50
2019-05-09T21:56:24.275Z,82.70
2019-05-09T21:59:12.294Z,80.70
2019-05-09T22:02:00.425Z,79.70
2019-05-09T22:04:48.411Z,80.30
2019-05-09T22:07:36.266Z,80.50
2019-05-09T22:10:24.222Z,80.60
2019-05-09T22:13:12.394Z,81.00
2019-05-09T22:16:00.061Z,81.00
2019-05-09T22:18:48.052Z,81.60
2019-05-09T22:21:35.789Z,81.80
2019-05-09T22:24:23.636Z,82.20
2019-05-09T22:27:11.369Z,83.00
2019-05-09T22:29:59.111Z,83.20
2019-05-09T22:32:46.907Z,82.50
2019-05-09T22:35:34.762Z,83.10
2019-05-09T22:38:22.718Z,84.20
2019-05-09T22:41:10.689Z,82.80
2019-05-09T22:43:58.737Z,82.70
2019-05-09T22:46:46.360Z,83.10
2019-05-09T22:49:34.265Z,83.40
2019-05-09T22:52:22.197Z,83.90
2019-05-09T22:55:10.019Z,83.30
2019-05-09T22:57:57.558Z,82.30
2019-05-09T23:00:45.337Z,82.90
2019-05-09T23:03:33.028Z,82.60
2019-05-09T23:06:21.190Z,82.60
2019-05-09T23:09:08.897Z,83.20
2019-05-09T23:11:56.605Z,83.20
2019-05-09T23:14:44.538Z,82.70
2019-05-09T23:17:32.415Z,82.90
2019-05-09T23:20:24.915Z,83.00
2019-05-09T23:23:32.224Z,83.30
2019-05-09T23:26:21.119Z,83.70
2019-05-09T23:29:08.842Z,83.40
2019-05-09T23:31:58.107Z,83.90
2019-05-09T23:34:46.176Z,84.20
2019-05-09T23:37:34.257Z,83.90
2019-05-09T23:40:21.896Z,83.90
2019-05-09T23:43:09.933Z,83.70
2019-05-09T23:45:57.536Z,84.20
2019-05-09T23:48:45.589Z,84.50
2019-05-09T23:51:46.529Z,84.50
2019-05-09T23:54:52.259Z,84.30
2019-05-09T23:57:58.313Z,84.30
